Time,TemperatureF,DewpointF,PressureIn,WindDirection,WindDirectionDegrees,WindSpeedMPH,WindSpeedGustMPH,Humidity,HourlyPrecipIn,Conditions,Clouds,dailyrainin,SoftwareType,DateUTC
2013-08-15 00:13:00,53.2,49.0,30.03,North,5,0.0,-999.0,85,-99.99,,,0.00,weatherlink.com 1.10,2013-08-15 05:13:00,
2013-08-15 00:28:00,53.1,49.0,30.03,North,5,0.0,-999.0,86,-99.99,,,0.00,weatherlink.com 1.10,2013-08-15 05:28:00,
2013-08-15 00:43:00,52.9,49.0,30.03,North,5,0.0,-999.0,86,-99.99,,,0.00,weatherlink.com 1.10,2013-08-15 05:43:00,
2013-08-15 00:58:00,52.8,49.0,30.03,North,5,0.0,-999.0,87,-99.99,,,0.00,weatherlink.com 1.10,2013-08-15 05:58:00,
2013-08-15 01:13:00,52.6,49.0,30.03,North,5,0.0,-999.0,87,-99.99,,,0.00,weatherlink.com 1.10,2013-08-15 06:13:00,
2013-08-15 01:28:00,52.5,49.0,30.02,North,5,0.0,-999.0,87,-99.99,,,0.00,weatherlink.com 1.10,2013-08-15 06:28:00,
2013-08-15 01:43:00,52.3,49.0,30.03,North,5,0.0,-999.0,88,-99.99,,,0.00,weatherlink.com 1.10,2013-08-15 06:43:00,
2013-08-15 01:58:00,52.2,49.0,30.03,North,5,0.0,-999.0,88,-99.99,,,0.00,weatherlink.com 1.10,2013-08-15 06:58:00,
2013-08-15 02:13:00,52.0,49.0,30.03,North,5,0.0,-999.0,88,-99.99,,,0.00,weatherlink.com 1.10,2013-08-15 07:13:00,
2013-08-15 02:28:00,51.7,48.0,30.02,North,5,0.0,-999.0,87,-99.99,,,0.00,weatherlink.com 1.10,2013-08-15 07:28:00,
2013-08-15 02:43:00,51.4,48.0,30.02,North,5,0.0,-999.0,87,-99.99,,,0.00,weatherlink.com 1.10,2013-08-15 07:43:00,
2013-08-15 02:58:00,51.1,47.0,30.02,North,5,0.0,-999.0,87,-99.99,,,0.00,weatherlink.com 1.10,2013-08-15 07:58:00,
2013-08-15 03:13:00,50.7,47.0,30.03,North,5,0.0,-999.0,88,-99.99,,,0.00,weatherlink.com 1.10,2013-08-15 08:13:00,
2013-08-15 03:29:00,50.5,47.0,30.03,North,5,0.0,-999.0,88,-99.99,,,0.00,weatherlink.com 1.10,2013-08-15 08:29:00,
2013-08-15 03:44:00,50.4,47.0,30.03,North,5,0.0,-999.0,89,-99.99,,,0.00,weatherlink.com 1.10,2013-08-15 08:44:00,
2013-08-15 03:59:00,50.5,48.0,30.03,North,5,0.0,-999.0,91,-99.99,,,0.00,weatherlink.com 1.10,2013-08-15 08:59:00,
2013-08-15 04:14:00,50.5,48.0,30.03,North,5,0.0,-999.0,92,-99.99,,,0.00,weatherlink.com 1.10,2013-08-15 09:14:00,
2013-08-15 04:29:00,50.8,49.0,30.03,North,5,0.0,-999.0,93,-99.99,,,0.00,weatherlink.com 1.10,2013-08-15 09:29:00,
2013-08-15 04:44:00,51.0,49.0,30.02,North,5,0.0,-999.0,93,-99.99,,,0.00,weatherlink.com 1.10,2013-08-15 09:44:00,
2013-08-15 04:59:00,51.1,50.0,30.02,North,5,0.0,-999.0,94,-99.99,,,0.00,weatherlink.com 1.10,2013-08-15 09:59:00,
2013-08-15 05:14:00,51.4,50.0,30.02,North,5,0.0,-999.0,94,-99.99,,,0.00,weatherlink.com 1.10,2013-08-15 10:14:00,
2013-08-15 05:29:00,51.6,50.0,30.03,North,5,0.0,-999.0,94,-99.99,,,0.00,weatherlink.com 1.10,2013-08-15 10:29:00,
2013-08-15 05:44:00,51.6,50.0,30.03,North,5,0.0,-999.0,94,-99.99,,,0.00,weatherlink.com 1.10,2013-08-15 10:44:00,
2013-08-15 05:59:00,51.7,50.0,30.03,North,5,0.0,-999.0,94,-99.99,,,0.00,weatherlink.com 1.10,2013-08-15 10:59:00,
2013-08-15 06:14:00,51.7,50.0,30.04,North,5,0.0,-999.0,94,-99.99,,,0.00,weatherlink.com 1.10,2013-08-15 11:14:00,
2013-08-15 06:29:00,51.7,50.0,30.04,North,5,0.0,-999.0,94,-99.99,,,0.00,weatherlink.com 1.10,2013-08-15 11:29:00,
2013-08-15 06:44:00,51.7,50.0,30.04,North,5,0.0,-999.0,94,-99.99,,,0.00,weatherlink.com 1.10,2013-08-15 11:44:00,
2013-08-15 06:59:00,51.9,50.0,30.04,North,5,0.0,-999.0,94,-99.99,,,0.00,weatherlink.com 1.10,2013-08-15 11:59:00,
2013-08-15 07:14:00,52.0,51.0,30.04,North,5,0.0,-999.0,95,-99.99,,,0.00,weatherlink.com 1.10,2013-08-15 12:14:00,
2013-08-15 07:29:00,52.3,51.0,30.05,North,5,0.0,-999.0,95,-99.99,,,0.00,weatherlink.com 1.10,2013-08-15 12:29:00,
2013-08-15 07:44:00,52.8,52.0,30.06,North,5,0.0,-999.0,96,-99.99,,,0.00,weatherlink.com 1.10,2013-08-15 12:44:00,
2013-08-15 07:59:00,53.6,53.0,30.06,North,5,0.0,-999.0,96,-99.99,,,0.00,weatherlink.com 1.10,2013-08-15 12:59:00,
2013-08-15 08:14:00,54.8,54.0,30.06,North,5,0.0,-999.0,97,-99.99,,,0.00,weatherlink.com 1.10,2013-08-15 13:14:00,
2013-08-15 08:29:00,56.0,55.0,30.07,North,360,0.0,-999.0,97,-99.99,,,0.00,weatherlink.com 1.10,2013-08-15 13:29:00,
2013-08-15 08:44:00,56.7,56.0,30.07,North,360,0.0,-999.0,96,-99.99,,,0.00,weatherlink.com 1.10,2013-08-15 13:44:00,
2013-08-15 08:59:00,57.8,56.0,30.07,SW,236,0.0,-999.0,92,-99.99,,,0.00,weatherlink.com 1.10,2013-08-15 13:59:00,
2013-08-15 09:15:00,59.5,55.0,30.07,SW,236,0.0,-999.0,84,-99.99,,,0.00,weatherlink.com 1.10,2013-08-15 14:15:00,
2013-08-15 09:30:00,60.9,54.0,30.06,SW,236,0.0,-999.0,78,-99.99,,,0.00,weatherlink.com 1.10,2013-08-15 14:30:00,
2013-08-15 09:45:00,62.1,52.0,30.06,West,268,0.0,-999.0,70,-99.99,,,0.00,weatherlink.com 1.10,2013-08-15 14:45:00,
2013-08-15 10:00:00,64.0,53.0,30.06,North,350,0.0,-999.0,67,-99.99,,,0.00,weatherlink.com 1.10,2013-08-15 15:00:00,
2013-08-15 10:15:00,65.2,53.0,30.06,WNW,303,0.0,-999.0,65,-99.99,,,0.00,weatherlink.com 1.10,2013-08-15 15:15:00,
2013-08-15 10:45:00,68.9,52.0,30.06,NNW,329,0.0,-999.0,56,-99.99,,,0.00,weatherlink.com 1.10,2013-08-15 15:45:00,
2013-08-15 11:01:00,71.6,51.0,30.05,WNW,294,4.0,-999.0,48,-99.99,,,0.00,weatherlink.com 1.10,2013-08-15 16:01:00,
2013-08-15 11:15:00,74.0,52.0,30.05,WNW,298,0.0,-999.0,46,-99.99,,,0.00,weatherlink.com 1.10,2013-08-15 16:15:00,
2013-08-15 11:30:00,75.8,54.0,30.04,SE,146,0.0,-999.0,47,-99.99,,,0.00,weatherlink.com 1.10,2013-08-15 16:30:00,
2013-08-15 11:45:00,77.4,52.0,30.04,NE,51,1.0,-999.0,42,-99.99,,,0.00,weatherlink.com 1.10,2013-08-15 16:45:00,
2013-08-15 12:00:00,78.1,51.0,30.04,NNE,20,0.0,-999.0,39,-99.99,,,0.00,weatherlink.com 1.10,2013-08-15 17:00:00,
2013-08-15 12:16:00,78.1,48.0,30.03,West,259,1.0,-999.0,35,-99.99,,,0.00,weatherlink.com 1.10,2013-08-15 17:16:00,
2013-08-15 12:31:00,78.8,46.0,30.02,SSW,213,0.0,-999.0,31,-99.99,,,0.00,weatherlink.com 1.10,2013-08-15 17:31:00,
2013-08-15 12:46:00,80.1,46.0,30.02,SW,223,3.0,-999.0,30,-99.99,,,0.00,weatherlink.com 1.10,2013-08-15 17:46:00,
2013-08-15 13:01:00,79.4,44.0,30.02,SW,227,0.0,-999.0,29,-99.99,,,0.00,weatherlink.com 1.10,2013-08-15 18:01:00,
2013-08-15 13:16:00,78.8,47.0,30.02,SSW,211,2.0,-999.0,33,-99.99,,,0.00,weatherlink.com 1.10,2013-08-15 18:16:00,
2013-08-15 13:31:00,80.5,44.0,30.01,West,277,0.0,-999.0,27,-99.99,,,0.00,weatherlink.com 1.10,2013-08-15 18:31:00,
2013-08-15 13:46:00,80.7,46.0,30.02,WNW,295,2.0,-999.0,29,-99.99,,,0.00,weatherlink.com 1.10,2013-08-15 18:46:00,
2013-08-15 14:01:00,81.6,46.0,30.01,SW,236,0.0,-999.0,29,-99.99,,,0.00,weatherlink.com 1.10,2013-08-15 19:01:00,
2013-08-15 14:16:00,81.6,44.0,30.01,SSW,204,0.0,-999.0,27,-99.99,,,0.00,weatherlink.com 1.10,2013-08-15 19:16:00,
2013-08-15 14:31:00,80.7,48.0,30.01,NE,46,0.0,-999.0,32,-99.99,,,0.00,weatherlink.com 1.10,2013-08-15 19:31:00,
2013-08-15 14:46:00,79.4,50.0,30.01,North,5,0.0,-999.0,36,-99.99,,,0.00,weatherlink.com 1.10,2013-08-15 19:46:00,
2013-08-15 15:16:00,78.3,49.0,30.01,WNW,292,0.0,-999.0,36,-99.99,,,0.00,weatherlink.com 1.10,2013-08-15 20:16:00,
2013-08-15 15:31:00,77.9,47.0,30.00,WSW,237,0.0,-999.0,33,-99.99,,,0.00,weatherlink.com 1.10,2013-08-15 20:31:00,
2013-08-15 15:46:00,78.5,49.0,30.00,SSW,194,0.0,-999.0,35,-99.99,,,0.00,weatherlink.com 1.10,2013-08-15 20:46:00,
2013-08-15 16:17:00,82.2,48.0,29.99,WNW,296,0.0,-999.0,30,-99.99,,,0.00,weatherlink.com 1.10,2013-08-15 21:17:00,
2013-08-15 16:32:00,81.1,46.0,30.00,SSE,160,0.0,-999.0,29,-99.99,,,0.00,weatherlink.com 1.10,2013-08-15 21:32:00,
2013-08-15 16:47:00,80.1,46.0,29.99,SSE,162,4.0,-999.0,30,-99.99,,,0.00,weatherlink.com 1.10,2013-08-15 21:47:00,
2013-08-15 17:02:00,79.8,46.0,30.00,South,189,0.0,-999.0,30,-99.99,,,0.00,weatherlink.com 1.10,2013-08-15 22:02:00,
2013-08-15 17:16:00,80.1,49.0,29.99,SW,228,3.0,-999.0,34,-99.99,,,0.00,weatherlink.com 1.10,2013-08-15 22:16:00,
2013-08-15 17:46:00,80.5,46.0,30.00,WSW,250,0.0,-999.0,30,-99.99,,,0.00,weatherlink.com 1.10,2013-08-15 22:46:00,
2013-08-15 18:01:00,79.4,46.0,30.00,South,182,0.0,-999.0,31,-99.99,,,0.00,weatherlink.com 1.10,2013-08-15 23:01:00,
2013-08-15 18:17:00,77.9,47.0,30.00,WSW,258,0.0,-999.0,34,-99.99,,,0.00,weatherlink.com 1.10,2013-08-15 23:17:00,
2013-08-15 18:32:00,77.0,47.0,30.00,SW,226,1.0,-999.0,35,-99.99,,,0.00,weatherlink.com 1.10,2013-08-15 23:32:00,
2013-08-15 18:47:00,76.3,47.0,30.01,WSW,237,0.0,-999.0,35,-99.99,,,0.00,weatherlink.com 1.10,2013-08-15 23:47:00,
2013-08-15 19:17:00,75.3,49.0,30.01,SW,227,0.0,-999.0,40,-99.99,,,0.00,weatherlink.com 1.10,2013-08-16 00:17:00,
2013-08-15 19:32:00,74.6,49.0,30.01,SW,227,0.0,-999.0,41,-99.99,,,0.00,weatherlink.com 1.10,2013-08-16 00:32:00,
2013-08-15 19:47:00,73.9,51.0,30.01,SW,227,0.0,-999.0,45,-99.99,,,0.00,weatherlink.com 1.10,2013-08-16 00:47:00,
2013-08-15 20:02:00,72.7,51.0,30.01,SW,227,0.0,-999.0,47,-99.99,,,0.00,weatherlink.com 1.10,2013-08-16 01:02:00,
2013-08-15 20:17:00,71.3,52.0,30.00,SW,227,0.0,-999.0,50,-99.99,,,0.00,weatherlink.com 1.10,2013-08-16 01:17:00,
2013-08-15 20:32:00,69.6,51.0,30.01,SW,227,0.0,-999.0,52,-99.99,,,0.00,weatherlink.com 1.10,2013-08-16 01:32:00,
2013-08-15 20:47:00,68.1,51.0,30.01,SW,227,0.0,-999.0,54,-99.99,,,0.00,weatherlink.com 1.10,2013-08-16 01:47:00,
2013-08-15 21:02:00,66.4,50.0,30.02,SW,227,0.0,-999.0,56,-99.99,,,0.00,weatherlink.com 1.10,2013-08-16 02:02:00,
2013-08-15 21:17:00,65.2,51.0,30.02,SW,227,0.0,-999.0,61,-99.99,,,0.00,weatherlink.com 1.10,2013-08-16 02:17:00,
2013-08-15 21:32:00,63.4,51.0,30.02,SW,227,0.0,-999.0,65,-99.99,,,0.00,weatherlink.com 1.10,2013-08-16 02:32:00,
2013-08-15 21:47:00,61.8,51.0,30.03,SW,227,0.0,-999.0,69,-99.99,,,0.00,weatherlink.com 1.10,2013-08-16 02:47:00,
2013-08-15 22:02:00,60.4,52.0,30.04,SW,227,0.0,-999.0,73,-99.99,,,0.00,weatherlink.com 1.10,2013-08-16 03:02:00,
2013-08-15 22:17:00,59.3,51.0,30.03,SW,227,0.0,-999.0,75,-99.99,,,0.00,weatherlink.com 1.10,2013-08-16 03:17:00,
2013-08-15 22:32:00,58.6,51.0,30.03,SW,227,0.0,-999.0,77,-99.99,,,0.00,weatherlink.com 1.10,2013-08-16 03:32:00,
2013-08-15 22:47:00,57.8,51.0,30.04,SW,227,0.0,-999.0,79,-99.99,,,0.00,weatherlink.com 1.10,2013-08-16 03:47:00,
2013-08-15 23:02:00,57.0,51.0,30.04,SW,227,0.0,-999.0,79,-99.99,,,0.00,weatherlink.com 1.10,2013-08-16 04:02:00,
2013-08-15 23:17:00,56.3,51.0,30.03,SW,227,0.0,-999.0,81,-99.99,,,0.00,weatherlink.com 1.10,2013-08-16 04:17:00,
2013-08-15 23:32:00,55.7,50.0,30.04,SW,227,0.0,-999.0,82,-99.99,,,0.00,weatherlink.com 1.10,2013-08-16 04:32:00,
2013-08-15 23:47:00,55.1,50.0,30.04,SW,227,0.0,-999.0,82,-99.99,,,0.00,weatherlink.com 1.10,2013-08-16 04:47:00,